»·PEaware :: N77CP KDUG-KPRC

N77CP :: KDUG-KPRC

FLIGHT INFORMATION

Flight Status: Arrived
Operator: Privately registered:
United States
More flights under this callsign
Pilot: Les P. (123)
Aircraft: CESSNA 310
(C310)
More flights by this aircraft type
Origin: KDUG Bisbee Douglas Intl
United States
Destination: KPRC Love
United States
More flights between these airports :: More routes between these airports
Route: DUG V66 TUS V16 PXR V105 DRK
File this flight plan on PilotEdge
Remarks:
Altitude:
(Current/Filed)
10,000ft
Speed:
(Current/Filed)
184kts
Departed: 03-Apr-23 01:38 PM
Arrived: 03-Apr-23 03:13 PM
Distance/Time
Traveled:
238nm/1:34
Distance/Time
To Go:
Arrived

Flight Plot

Page will automatically refresh every two minutes.

Flight plan parsing failed; only flown route is shown


Map Options




Map Legend


Flown Route
Filed Route
Departure Airport
Arrival Airport
Navaid (VOR, NDB)
Fix

Horizontal Profiles

Position Reports

Time Latitude Longitude Heading Altitude Ground
Speed
03-Apr-23 12:54 31.457812 -109.597599 236 4105ft 0kts
03-Apr-23 12:55 31.457812 -109.597599 236 4105ft 0kts
03-Apr-23 12:56 31.457812 -109.597599 236 4105ft 0kts
03-Apr-23 12:57 31.457812 -109.597599 236 4105ft 0kts
03-Apr-23 12:58 31.457812 -109.597599 236 4105ft 0kts
03-Apr-23 12:59 31.457812 -109.597599 236 4105ft 0kts
03-Apr-23 13:00 31.457812 -109.597599 236 4105ft 0kts
03-Apr-23 13:01 31.457893 -109.597458 236 4106ft 0kts
03-Apr-23 13:02 31.457893 -109.597458 236 4106ft 0kts
03-Apr-23 13:03 31.457893 -109.597458 236 4106ft 0kts
03-Apr-23 13:04 31.457893 -109.597458 236 4106ft 0kts
03-Apr-23 13:05 31.457893 -109.597458 236 4106ft 0kts
03-Apr-23 13:06 31.457893 -109.597458 236 4106ft 0kts
03-Apr-23 13:07 31.457893 -109.597458 236 4106ft 0kts
03-Apr-23 13:08 31.457893 -109.597458 236 4106ft 0kts
03-Apr-23 13:09 31.457893 -109.597458 236 4106ft 0kts
03-Apr-23 13:10 31.457893 -109.597458 236 4106ft 0kts
03-Apr-23 13:11 31.457893 -109.597458 236 4106ft 0kts
03-Apr-23 13:12 31.457893 -109.597458 236 4106ft 0kts
03-Apr-23 13:13 31.457893 -109.597458 236 4106ft 0kts
03-Apr-23 13:14 31.457893 -109.597458 236 4106ft 0kts
03-Apr-23 13:15 31.457893 -109.597458 236 4106ft 0kts
03-Apr-23 13:16 31.457893 -109.597458 236 4106ft 0kts
03-Apr-23 13:17 31.457893 -109.597458 236 4106ft 0kts
03-Apr-23 13:18 31.457893 -109.597458 236 4106ft 0kts
03-Apr-23 13:19 31.457893 -109.597458 236 4106ft 0kts
03-Apr-23 13:20 31.457893 -109.597458 236 4106ft 0kts
03-Apr-23 13:21 31.457893 -109.597458 236 4106ft 0kts
03-Apr-23 13:22 31.457893 -109.597458 236 4106ft 0kts
03-Apr-23 13:23 31.457893 -109.597458 236 4106ft 0kts
03-Apr-23 13:24 31.457893 -109.597458 236 4106ft 0kts
03-Apr-23 13:25 31.457893 -109.597458 236 4106ft 0kts
03-Apr-23 13:26 31.457893 -109.597458 236 4106ft 0kts
03-Apr-23 13:27 31.460203 -109.599809 340 4106ft 13kts
03-Apr-23 13:28 31.465187 -109.599901 6 4116ft 16kts
03-Apr-23 13:29 31.467960 -109.602409 297 4120ft 14kts
03-Apr-23 13:30 31.470400 -109.602913 356 4129ft 19kts
03-Apr-23 13:31 31.473283 -109.602922 1 4134ft 0kts
03-Apr-23 13:32 31.473283 -109.602922 1 4134ft 0kts
03-Apr-23 13:33 31.473283 -109.602922 1 4134ft 0kts
03-Apr-23 13:34 31.473283 -109.602922 1 4134ft 0kts
03-Apr-23 13:35 31.473283 -109.602922 1 4134ft 0kts
03-Apr-23 13:36 31.474002 -109.598137 89 4144ft 31kts
03-Apr-23 13:37 31.474026 -109.598556 270 4144ft 59kts
03-Apr-23 13:38 31.474949 -109.628071 277 4965ft 105kts
03-Apr-23 13:39 31.495259 -109.657153 289 5612ft 122kts
03-Apr-23 13:40 31.512121 -109.692683 286 6202ft 126kts
03-Apr-23 13:41 31.530253 -109.730116 284 6795ft 136kts
03-Apr-23 13:42 31.549007 -109.768817 285 7358ft 135kts
03-Apr-23 13:43 31.567549 -109.807170 286 7912ft 134kts
03-Apr-23 13:44 31.588921 -109.843590 293 8475ft 139kts
03-Apr-23 13:45 31.608187 -109.880920 284 9060ft 130kts
03-Apr-23 13:46 31.622181 -109.918588 283 9630ft 126kts
03-Apr-23 13:47 31.639705 -109.956811 287 9856ft 145kts
03-Apr-23 13:48 31.660629 -110.000249 288 9889ft 158kts
03-Apr-23 13:49 31.682786 -110.046289 288 9896ft 163kts
03-Apr-23 13:50 31.704885 -110.092315 288 9895ft 159kts
03-Apr-23 13:51 31.726013 -110.136410 287 9912ft 154kts
03-Apr-23 13:52 31.747892 -110.182078 288 9927ft 165kts
03-Apr-23 13:53 31.770500 -110.229326 289 10006ft 167kts
03-Apr-23 13:54 31.793384 -110.277218 289 10002ft 168kts
03-Apr-23 13:55 31.816266 -110.325166 289 9995ft 167kts
03-Apr-23 13:57 31.839003 -110.372905 292 9975ft 168kts
03-Apr-23 13:58 31.862211 -110.421643 289 9936ft 167kts
03-Apr-23 13:59 31.883085 -110.465563 287 9935ft 145kts
03-Apr-23 14:00 31.904039 -110.509782 289 9919ft 160kts
03-Apr-23 14:01 31.926130 -110.556306 289 9915ft 164kts
03-Apr-23 14:02 31.948445 -110.603427 289 9910ft 164kts
03-Apr-23 14:03 31.970708 -110.650512 288 9914ft 165kts
03-Apr-23 14:04 31.993073 -110.697844 288 9921ft 165kts
03-Apr-23 14:05 32.015344 -110.745054 288 9928ft 165kts
03-Apr-23 14:06 32.037665 -110.792424 288 9958ft 164kts
03-Apr-23 14:07 32.059779 -110.839425 289 9975ft 164kts
03-Apr-23 14:08 32.082295 -110.887330 289 9982ft 168kts
03-Apr-23 14:09 32.111743 -110.930704 309 9982ft 178kts
03-Apr-23 14:10 32.149762 -110.968542 310 9992ft 179kts
03-Apr-23 14:11 32.188011 -111.006241 310 9983ft 178kts
03-Apr-23 14:12 32.225780 -111.043525 310 9955ft 177kts
03-Apr-23 14:13 32.263715 -111.080994 311 9946ft 176kts
03-Apr-23 14:14 32.301030 -111.117908 310 9926ft 175kts
03-Apr-23 14:15 32.338684 -111.155212 311 9951ft 180kts
03-Apr-23 14:16 32.377323 -111.193485 311 9951ft 180kts
03-Apr-23 14:17 32.415750 -111.231628 311 9953ft 180kts
03-Apr-23 14:18 32.453955 -111.269594 310 9950ft 180kts
03-Apr-23 14:19 32.492186 -111.307613 310 9944ft 178kts
03-Apr-23 14:19 32.523774 -111.339067 310 9931ft 176kts
03-Apr-23 14:20 32.561209 -111.376390 310 9917ft 176kts
03-Apr-23 14:22 32.605047 -111.420141 310 9898ft 176kts
03-Apr-23 14:23 32.642621 -111.457692 310 9889ft 177kts
03-Apr-23 14:23 32.673944 -111.489024 310 9886ft 177kts
03-Apr-23 14:24 32.711731 -111.526857 310 9886ft 176kts
03-Apr-23 14:26 32.755443 -111.570686 311 9881ft 176kts
03-Apr-23 14:27 32.793054 -111.608442 311 9884ft 176kts
03-Apr-23 14:27 32.824300 -111.639841 311 9887ft 176kts
03-Apr-23 14:28 32.870056 -111.665524 327 9902ft 183kts
03-Apr-23 14:29 32.916594 -111.690534 327 9903ft 183kts
03-Apr-23 14:30 32.963174 -111.715608 327 9905ft 184kts
03-Apr-23 14:31 33.009798 -111.740738 327 9903ft 184kts
03-Apr-23 14:32 33.056864 -111.766132 327 9902ft 185kts
03-Apr-23 14:33 33.103758 -111.791468 327 9895ft 185kts
03-Apr-23 14:34 33.150157 -111.816550 327 10008ft 180kts
03-Apr-23 14:35 33.196243 -111.841519 327 10022ft 183kts
03-Apr-23 14:36 33.242887 -111.866801 327 10024ft 184kts
03-Apr-23 14:37 33.289523 -111.892111 326 10022ft 184kts
03-Apr-23 14:38 33.336181 -111.917464 327 10019ft 183kts
03-Apr-23 14:39 33.382709 -111.942779 327 9989ft 183kts
03-Apr-23 14:40 33.428949 -111.967963 327 9988ft 182kts
03-Apr-23 14:41 33.474038 -111.995132 325 9988ft 181kts
03-Apr-23 14:42 33.518973 -112.022479 325 9986ft 180kts
03-Apr-23 14:43 33.563687 -112.049728 324 10007ft 181kts
03-Apr-23 14:44 33.608820 -112.077267 324 10017ft 182kts
03-Apr-23 14:45 33.653748 -112.104707 325 10011ft 180kts
03-Apr-23 14:46 33.698704 -112.132205 325 10009ft 180kts
03-Apr-23 14:47 33.743428 -112.159596 325 10010ft 180kts
03-Apr-23 14:48 33.787920 -112.186865 325 10003ft 180kts
03-Apr-23 14:49 33.832558 -112.214264 325 9991ft 180kts
03-Apr-23 14:50 33.876989 -112.241569 325 9981ft 180kts
03-Apr-23 14:51 33.921810 -112.269125 325 9965ft 179kts
03-Apr-23 14:52 33.966103 -112.296424 325 9940ft 179kts
03-Apr-23 14:53 34.010340 -112.323709 325 9931ft 179kts
03-Apr-23 14:54 34.054917 -112.351222 325 9925ft 180kts
03-Apr-23 14:55 34.098887 -112.378380 325 9921ft 169kts
03-Apr-23 14:56 34.139950 -112.403818 325 9914ft 163kts
03-Apr-23 14:57 34.182259 -112.430039 326 9920ft 178kts
03-Apr-23 14:58 34.226967 -112.457751 326 9911ft 181kts
03-Apr-23 14:59 34.271671 -112.485503 326 9905ft 179kts
03-Apr-23 15:00 34.320384 -112.495983 351 9903ft 186kts
03-Apr-23 15:01 34.372691 -112.494261 354 9946ft 193kts
03-Apr-23 15:02 34.426947 -112.491955 354 9960ft 194kts
03-Apr-23 15:03 34.481685 -112.486449 2 9974ft 199kts
03-Apr-23 15:04 34.533044 -112.456054 21 9773ft 213kts
03-Apr-23 15:05 34.580944 -112.407553 40 9015ft 227kts
03-Apr-23 15:06 34.625082 -112.355251 40 8178ft 216kts
03-Apr-23 15:07 34.667694 -112.306052 40 7380ft 208kts
03-Apr-23 15:08 34.713099 -112.290381 309 6923ft 159kts
03-Apr-23 15:09 34.719842 -112.336009 254 6379ft 148kts
03-Apr-23 15:10 34.696079 -112.375219 220 5788ft 139kts
03-Apr-23 15:11 34.672363 -112.400258 217 5301ft 101kts
03-Apr-23 15:12 34.657746 -112.415922 221 4988ft 29kts
03-Apr-23 15:13 34.654864 -112.420158 296 5002ft 3kts
03-Apr-23 15:14 34.655497 -112.421392 222 4992ft 3kts
03-Apr-23 15:15 34.655253 -112.421292 117 4996ft 0kts

Navigation Log

Ident Type
Flight plan parsing failed, navigation log unavailable